• Join FlightAware (Why Join?)
  • Login
  • US Flag 
06:05AM EDT


 

Airport Tracker/Info


-or-


 

Live Flight TrackerFlight Track Log ✈ SWA2169 ✈ 27-Sep-2013 ✈ KPBI - KISP

Flight Track Log - Related Links

Times and Time Zones

All times are in EDT time to prevent confusion due to time zone crossing. See the SWA2169 flight status page for this flight to view local times or setup timezone preferences in your user account.

Time Position Orientation Groundspeed Altitude Reporting Facility
EDT Latitude Longitude Course Direction KTS MPH feet Rate Location/Type
05:40PM 26.7158 -79.9614 52° Northeast 228 262 5,700  Level Miami Center
05:41PM 26.7569 -79.8906 57° Northeast 244 281 7,000 1,860 Climbing Miami Center
05:42PM 26.8106 -79.8197 50° Northeast 279 321 9,500 2,040 Climbing Miami Center
05:43PM 26.8622 -79.7464 52° Northeast 300 345 11,100 1,860 Climbing Miami Center
05:44PM 27.2778 -79.8451 52° Northeast  Level Estimated
05:44PM 26.9247 -79.6547 53° Northeast 344 396 13,300  Level Miami Center
05:45PM 26.9825 -79.5722 52° Northeast 374 430 15,400 2,100 Climbing Miami Center
05:46PM 27.0469 -79.4758 53° Northeast 380 437 17,600 2,100 Climbing Miami Center
05:47PM 27.1242 -79.3678 51° Northeast 393 452 19,700 2,040 Climbing Miami Center
05:48PM 27.1883 -79.2689 54° Northeast 393 452 21,700 1,620 Climbing Miami Center
05:49PM 27.2611 -79.1628 52° Northeast 398 458 23,000 1,440 Climbing Miami Center
05:50PM 27.3231 -79.0731 52° Northeast 412 474 24,600 1,440 Climbing Miami Center
05:51PM 27.3978 -78.9619 53° Northeast 423 487 25,900 1,320 Climbing Miami Center
05:52PM 27.4789 -78.8442 52° Northeast 434 499 27,300 1,260 Climbing Miami Center
05:53PM 27.5597 -78.7331 51° Northeast 439 505 28,500 1,140 Climbing Miami Center
05:54PM 27.6256 -78.6358 53° Northeast 439 505 29,600 1,260 Climbing Miami Center
05:55PM 27.7064 -78.5267 50° Northeast 439 505 31,100 1,200 Climbing Miami Center
05:56PM 27.8175 -78.4861 18° North 420 483 32,100 1,200 Climbing Miami Center
05:57PM 27.9367 -78.4689 North 416 479 33,600 1,200 Climbing Miami Center
05:58PM 28.0539 -78.4517 North 411 473 34,500 660 Climbing Miami Center
05:59PM 28.1689 -78.4344 North 411 473 35,000 240 Climbing Miami Center
06:00PM 28.2900 -78.4172 North 426 490 35,000 -60 Level Miami Center
06:01PM 28.4114 -78.4025 North 426 490 34,900  Descending Miami Center
06:02PM 28.5306 -78.3853 North 421 484 35,000  Climbing Miami Center
06:03PM 28.6456 -78.3678 North 426 490 35,000  Level Miami Center
06:04PM 28.7667 -78.3531 North 426 490 35,000  Level Miami Center
06:05PM 28.8836 -78.3331 North 427 491 35,000  Level Miami Center
06:06PM 29.0008 -78.3158 North 427 491 35,000  Level Miami Center
06:07PM 29.1239 -78.3008 North 427 491 35,000  Level Miami Center
06:08PM 29.2411 -78.2833 North 427 491 35,000  Level Miami Center
06:09PM 29.3600 -78.2658 North 427 491 35,000  Level Miami Center
06:11PM 29.6489 -78.2258 North 436 502 35,000  Level Jacksonville Center
06:12PM 29.7625 -78.1917 15° North 431 496 35,000  Level Jacksonville Center
06:13PM 29.8781 -78.1550 15° North 431 496 35,000  Level Jacksonville Center
06:14PM 29.9978 -78.1228 13° North 432 497 35,000  Level Jacksonville Center
06:15PM 30.1111 -78.0836 17° North 427 491 35,000  Level Jacksonville Center
06:16PM 30.2289 -78.0536 12° North 426 490 35,000  Level Jacksonville Center
06:17PM 30.3506 -78.0139 16° North 434 499 35,000  Level Jacksonville Center
06:18PM 30.4636 -77.9719 18° North 439 505 35,000  Level Jacksonville Center
06:19PM 30.5817 -77.9417 12° North 429 494 35,000  Level Jacksonville Center
06:20PM 30.6928 -77.9044 16° North 424 488 35,000  Level Jacksonville Center
06:21PM 30.8042 -77.8719 14° North 419 482 35,000  Level Jacksonville Center
06:22PM 30.9136 -77.8394 14° North 412 474 35,000  Level Jacksonville Center
06:23PM 31.0250 -77.8044 15° North 412 474 35,000  Level Jacksonville Center
06:24PM 31.1342 -77.7694 15° North 412 474 35,000  Level Jacksonville Center
06:25PM 31.2436 -77.7392 13° North 407 468 35,000  Level Jacksonville Center
06:26PM 31.3506 -77.7042 16° North 402 463 35,000  Level Jacksonville Center
06:27PM 31.4575 -77.6667 17° North 402 463 35,000  Level Jacksonville Center
06:28PM 31.5650 -77.6411 11° North 392 451 35,000  Level Jacksonville Center
06:29PM 31.6703 -77.6106 14° North 387 445 35,000  Level Jacksonville Center
06:30PM 31.7753 -77.5753 16° North 393 452 35,000  Level Jacksonville Center
06:31PM 31.8803 -77.5447 14° North 393 452 35,000  Level Jacksonville Center
06:32PM 31.9894 -77.5092 15° North 393 452 35,000  Level Jacksonville Center
06:33PM 32.0944 -77.4761 15° North 393 452 35,000  Level Jacksonville Center
06:34PM 32.2017 -77.4428 15° North 393 452 35,000  Level Jacksonville Center
06:35PM 32.3086 -77.4092 15° North 393 452 35,000  Level Jacksonville Center
06:36PM 32.4136 -77.3758 15° North 393 452 35,000  Level Jacksonville Center
06:37PM 32.5186 -77.3400 16° North 393 452 35,000  Level Jacksonville Center
06:38PM 32.6256 -77.3086 14° North 393 452 35,000  Level Jacksonville Center
06:39PM 32.7408 -77.2719 15° North 393 452 35,000  Level Jacksonville Center
06:42PM 32.9806 -77.1956 15° North 396 456 35,000  Level Washington Center
06:43PM 33.0853 -77.1631 15° North 401 461 35,000  Level Washington Center
06:44PM 33.1919 -77.1303 14° North 396 456 35,000  Level Washington Center
06:45PM 33.2967 -77.0947 16° North 396 456 35,000  Level Washington Center
06:46PM 33.4014 -77.0619 15° North 396 456 35,000  Level Washington Center
06:47PM 33.5081 -77.0264 16° North 396 456 35,000  Level Washington Center
06:48PM 33.6169 -76.9933 14° North 396 456 35,000  Level Washington Center
06:49PM 33.7239 -76.9578 15° North 396 456 35,000  Level Washington Center
06:50PM 33.8286 -76.9244 15° North 396 456 35,000  Level Washington Center
06:51PM 33.9478 -76.8839 16° North 396 456 35,000  Level Washington Center
06:52PM 34.0567 -76.8481 15° North 396 456 35,000  Level Washington Center
06:53PM 34.1656 -76.8119 15° North 396 456 35,000  Level Washington Center
06:54PM 34.2703 -76.7758 16° North 396 456 35,000  Level Washington Center
06:55PM 34.3811 -76.7394 15° North 396 456 35,000  Level Washington Center
06:56PM 34.4922 -76.7058 14° North 396 456 35,000  Level Washington Center
06:57PM 34.5967 -76.6694 16° North 396 456 35,000  Level Washington Center
06:58PM 34.7056 -76.6331 15° North 396 456 35,000  Level Washington Center
06:59PM 34.8122 -76.5989 15° North 396 456 35,000  Level Washington Center
07:00PM 34.9189 -76.5622 16° North 396 456 35,000  Level Washington Center
07:01PM 35.0278 -76.5281 14° North 396 456 35,000  Level Washington Center
07:02PM 35.1239 -76.4936 16° North 396 456 35,000  Level Washington Center
07:03PM 35.2286 -76.4542 17° North 391 450 35,000  Level Washington Center
07:04PM 35.3333 -76.4169 16° North 391 450 35,000  Level Washington Center
07:05PM 35.4419 -76.3825 14° North 391 450 35,000  Level Washington Center
07:06PM 35.5486 -76.3453 16° North 396 456 35,000  Level Washington Center
07:07PM 35.6572 -76.3103 15° North 396 456 35,000  Level Washington Center
07:08PM 35.7661 -76.2756 15° North 396 456 35,000  Level Washington Center
07:09PM 35.8747 -76.2356 17° North 396 456 35,000  Level Washington Center
07:10PM 35.9833 -76.1978 16° North 396 456 35,000  Level Washington Center
07:11PM 36.0900 -76.1653 14° North 396 456 35,000  Level Washington Center
07:12PM 36.1986 -76.1247 17° North 396 456 35,000  Level Washington Center
07:13PM 36.3053 -76.0894 15° North 396 456 35,000  Level Washington Center
07:14PM 36.4139 -76.0514 16° North 396 456 35,000  Level Washington Center
07:15PM 36.5203 -76.0519 360° North 396 456 35,000  Level Washington Center
07:16PM 36.6181 -76.1275 328° Northwest 379 436 35,000  Level Washington Center
07:17PM 36.7242 -76.1983 332° Northwest 379 436 35,000  Level Washington Center
07:18PM 36.8136 -76.2483 336° Northwest 388 447 35,000  Level Washington Center
07:19PM 36.9161 -76.1919 24° Northeast 366 421 35,000  Level Washington Center
07:20PM 37.0311 -76.1225 26° Northeast 385 443 35,000  Level Washington Center
07:21PM 37.1336 -76.0608 26° Northeast 397 457 35,000  Level Washington Center
07:22PM 37.2339 -75.9961 27° Northeast 403 464 35,000  Level Washington Center
07:23PM 37.3342 -75.9314 27° Northeast 403 464 35,000  Level Washington Center
07:24PM 37.4367 -75.8692 26° Northeast 403 464 35,000  Level Washington Center
07:25PM 37.5369 -75.8067 26° Northeast 403 464 35,000  Level Washington Center
07:26PM 37.6369 -75.7414 27° Northeast 403 464 35,000  Level Washington Center
07:27PM 37.7414 -75.6758 26° Northeast 403 464 35,000  Level Washington Center
07:28PM 37.8436 -75.6128 26° Northeast 403 464 35,000  Level Washington Center
07:29PM 37.9458 -75.5497 26° Northeast 403 464 35,000  Level Washington Center
07:30PM 38.0500 -75.4811 27° Northeast 403 464 35,000  Level Washington Center
07:31PM 38.1439 -75.3989 35° Northeast 403 464 35,000  Level Washington Center
07:32PM 38.2394 -75.3169 34° Northeast 409 471 35,000  Level Washington Center
07:33PM 38.3311 -75.2344 35° Northeast 409 471 35,000  Level Washington Center
07:34PM 38.4267 -75.1411 37° Northeast 414 476 35,000  Level Washington Center
07:35PM 38.5222 -75.0608 33° Northeast 414 476 35,000  Level Washington Center
07:36PM 38.6178 -74.9725 36° Northeast 414 476 35,000  Level Washington Center
07:37PM 38.7131 -74.8786 38° Northeast 414 476 35,000  Level Washington Center
07:38PM 38.8083 -74.7950 34° Northeast 420 483 35,000  Level Washington Center
07:39PM 38.9036 -74.7086 35° Northeast 420 483 35,000 -180 Level Washington Center
07:41PM 39.0986 -74.5350 35° Northeast 424 488 34,500 -1,080 Descending New York Center
07:42PM 39.1931 -74.4489 35° Northeast 418 481 31,700 -3,060 Descending New York Center
07:43PM 39.2897 -74.3625 35° Northeast 418 481 28,400 -3,420 Descending New York Center
07:44PM 39.3883 -74.2708 36° Northeast 418 481 25,000 -3,120 Descending New York Center
07:45PM 39.4786 -74.1839 37° Northeast 418 481 22,200 -2,160 Descending New York Center
07:46PM 39.5631 -74.0669 47° Northeast 404 465 20,700 -1,500 Descending New York Center
07:47PM 39.6156 -73.9803 52° Northeast 392 451 19,300 -1,380 Descending New York Center
07:48PM 39.6897 -73.8625 51° Northeast 386 444 18,000 -1,080 Descending New York Center
07:49PM 39.7856 -73.7803 33° Northeast 367 422 17,200 -540 Descending New York Center
07:50PM 39.8792 -73.7058 31° Northeast 375 432 17,000 -120 Descending New York Center
07:51PM 39.9483 -73.6086 47° Northeast 375 432 17,000 -780 Level New York Center
07:52PM 40.0578 -73.4567 47° Northeast 426 490 15,000 -1,680 Descending Boston Center
07:53PM 40.1272 -73.3628 46° Northeast 378 435 12,600 -2,220 Descending Boston Center
07:54PM 40.1906 -73.2686 49° Northeast 356 410 10,700 -1,260 Descending Boston Center
07:55PM 40.2494 -73.1906 45° Northeast 322 371 10,100 -900 Descending Boston Center
07:56PM 40.3019 -73.1147 48° Northeast 290 334 9,000 -1,260 Descending Boston Center
07:59PM 40.4500 -73.0000 31° Northeast 251 289 5,900 -1,440 Descending New York TRACON
08:00PM 40.5167 -72.9667 21° North 263 303 4,300 -1,020 Descending New York TRACON
08:01PM 40.5833 -72.9833 349° North 258 297 4,000 -660 Descending New York TRACON
08:02PM 40.6167 -73.0667 298° West 247 284 3,000 -960 Descending New York TRACON
08:03PM 40.6333 -73.1500 285° West 243 280 2,000 -540 Descending New York TRACON
08:04PM 40.6667 -73.2000 311° West 176 203 2,000  Level New York TRACON
08:05PM 40.7167 -73.2167 346° North 161 185 2,100 -300 Climbing New York TRACON
08:06PM 40.7333 -73.1833 57° Northeast 136 157 1,500 -660 Descending New York TRACON
08:07PM 40.7667 -73.1500 37° Northeast 128 147 800 -720 Descending New York TRACON